createdAt,value
2022-09-14T00:00:29.745Z,3.90
2022-09-14T00:02:56.238Z,3.80
2022-09-14T00:05:22.727Z,3.66
2022-09-14T00:07:49.074Z,3.67
2022-09-14T00:10:15.439Z,3.87
2022-09-14T00:12:41.802Z,3.84
2022-09-14T00:15:08.161Z,3.75
2022-09-14T00:17:34.508Z,3.67
2022-09-14T00:20:00.911Z,3.80
2022-09-14T00:22:27.344Z,4.00
2022-09-14T00:24:53.683Z,3.85
2022-09-14T00:27:20.066Z,3.76
2022-09-14T00:29:46.432Z,3.74
2022-09-14T00:32:12.842Z,3.58
2022-09-14T00:34:39.260Z,3.55
2022-09-14T00:37:05.671Z,3.71
2022-09-14T00:39:32.053Z,3.54
2022-09-14T00:41:58.430Z,3.57
2022-09-14T00:44:24.792Z,3.44
2022-09-14T00:46:51.221Z,3.23
2022-09-14T00:49:17.658Z,3.34
2022-09-14T00:51:44.015Z,3.28
2022-09-14T00:54:10.353Z,3.13
2022-09-14T00:56:38.818Z,3.22
2022-09-14T00:59:05.168Z,3.19
2022-09-14T01:01:31.614Z,3.32
2022-09-14T01:03:58.028Z,2.93
2022-09-14T01:06:24.382Z,3.24
2022-09-14T01:08:50.727Z,3.27
2022-09-14T01:11:17.091Z,3.40
2022-09-14T01:13:43.470Z,3.12
2022-09-14T01:16:09.901Z,3.14
2022-09-14T01:18:36.283Z,3.18
2022-09-14T01:21:02.645Z,3.28
2022-09-14T01:23:29.007Z,3.50
2022-09-14T01:25:55.350Z,3.21
2022-09-14T01:28:21.740Z,3.26
2022-09-14T01:30:48.176Z,3.37
2022-09-14T01:33:14.544Z,3.26
2022-09-14T01:35:40.897Z,3.24
2022-09-14T01:46:19.717Z,3.55
2022-09-14T01:48:46.079Z,3.36
2022-09-14T01:51:12.444Z,3.30
2022-09-14T01:53:38.806Z,3.48
2022-09-14T01:56:05.169Z,3.48
2022-09-14T01:58:31.518Z,3.64
2022-09-14T02:00:57.931Z,3.45
2022-09-14T02:03:24.308Z,3.48
2022-09-14T02:05:50.807Z,3.07
2022-09-14T02:08:17.161Z,3.30
2022-09-14T02:10:43.508Z,3.29
2022-09-14T02:13:09.875Z,3.20
2022-09-14T02:15:36.247Z,2.98
2022-09-14T02:18:02.596Z,3.29
2022-09-14T02:20:28.975Z,3.14
2022-09-14T02:22:55.343Z,3.15
2022-09-14T02:25:21.725Z,3.30
2022-09-14T02:27:48.089Z,3.24
2022-09-14T02:30:14.439Z,3.39
2022-09-14T02:32:40.801Z,3.58
2022-09-14T02:35:07.141Z,3.23
2022-09-14T02:37:33.507Z,3.51
2022-09-14T02:39:59.914Z,3.43
2022-09-14T02:42:26.298Z,3.48
2022-09-14T02:44:52.678Z,3.41
2022-09-14T02:47:19.056Z,3.26
2022-09-14T02:49:45.444Z,3.28
2022-09-14T02:52:11.805Z,3.08
2022-09-14T02:54:38.169Z,3.15
2022-09-14T02:57:04.541Z,3.10
2022-09-14T02:59:30.904Z,3.18
2022-09-14T03:01:57.368Z,3.15
2022-09-14T03:04:23.799Z,3.10
2022-09-14T03:06:50.160Z,3.02
2022-09-14T03:09:16.619Z,3.28
2022-09-14T03:11:42.986Z,3.14
2022-09-14T03:14:09.354Z,3.06
2022-09-14T03:16:35.885Z,3.17
2022-09-14T03:19:02.276Z,2.88
2022-09-14T03:21:28.673Z,3.17
2022-09-14T03:23:55.029Z,3.21
2022-09-14T03:26:21.425Z,3.12
2022-09-14T03:28:47.822Z,3.23
2022-09-14T03:31:14.213Z,3.36
2022-09-14T03:33:40.766Z,3.24
2022-09-14T03:36:07.176Z,3.21
2022-09-14T03:38:33.531Z,3.03
2022-09-14T03:40:59.916Z,3.12
2022-09-14T03:43:26.270Z,3.17
2022-09-14T03:45:52.628Z,3.25
2022-09-14T03:48:18.975Z,3.27
2022-09-14T03:50:45.385Z,3.05
2022-09-14T03:53:11.753Z,3.21
2022-09-14T03:55:38.151Z,3.20
2022-09-14T03:58:04.539Z,3.41
2022-09-14T04:00:30.923Z,3.39
2022-09-14T04:02:57.326Z,3.26
2022-09-14T04:05:23.739Z,3.21
2022-09-14T04:07:50.219Z,3.19
2022-09-14T04:10:16.654Z,3.18
2022-09-14T04:12:43.025Z,3.11
2022-09-14T04:15:09.378Z,3.33
2022-09-14T04:17:35.783Z,3.04
2022-09-14T04:20:02.183Z,3.03
2022-09-14T04:22:28.612Z,3.05
2022-09-14T04:24:54.967Z,3.33
2022-09-14T04:27:21.335Z,3.11
2022-09-14T04:29:47.717Z,3.34
2022-09-14T04:32:14.094Z,3.19
2022-09-14T04:34:40.460Z,3.29
2022-09-14T04:37:06.834Z,3.27
2022-09-14T04:39:33.180Z,3.30
2022-09-14T04:41:59.629Z,3.37
2022-09-14T04:44:25.988Z,3.57
2022-09-14T04:46:52.421Z,3.28
2022-09-14T04:49:18.862Z,3.22
2022-09-14T04:51:45.342Z,3.72
2022-09-14T04:54:11.710Z,3.74
2022-09-14T04:56:38.084Z,3.53
2022-09-14T04:59:04.545Z,3.45
2022-09-14T05:01:31.068Z,7.16
2022-09-14T05:03:57.474Z,8.88
2022-09-14T05:06:23.844Z,3.61
2022-09-14T05:08:50.295Z,3.68
2022-09-14T05:11:16.705Z,5.57
2022-09-14T05:13:47.490Z,3.68
2022-09-14T05:16:16.112Z,3.73
2022-09-14T05:18:42.609Z,3.70
2022-09-14T05:21:09.034Z,3.47
2022-09-14T05:23:35.400Z,3.53
2022-09-14T05:26:01.819Z,3.91
2022-09-14T05:28:28.178Z,4.02
2022-09-14T05:30:54.569Z,3.78
2022-09-14T05:33:20.986Z,3.59
2022-09-14T05:35:47.355Z,3.91
2022-09-14T05:38:13.717Z,4.10
2022-09-14T05:40:40.098Z,3.82
2022-09-14T05:43:06.494Z,3.96
2022-09-14T05:45:32.864Z,4.09
2022-09-14T05:47:59.201Z,3.95
2022-09-14T05:50:25.555Z,3.57
2022-09-14T05:52:51.922Z,3.82
2022-09-14T05:55:18.287Z,4.08
2022-09-14T05:57:44.659Z,3.95
2022-09-14T06:00:11.063Z,3.68
2022-09-14T06:02:37.553Z,3.67
2022-09-14T06:05:03.958Z,3.54
2022-09-14T06:07:30.441Z,3.74
2022-09-14T06:09:56.780Z,3.24
2022-09-14T06:12:23.140Z,3.30
2022-09-14T06:14:49.784Z,3.76
2022-09-14T06:17:16.174Z,3.30
2022-09-14T06:19:42.620Z,3.11
2022-09-14T06:22:08.972Z,3.17
2022-09-14T06:24:35.363Z,3.07
2022-09-14T06:27:01.732Z,3.14
2022-09-14T06:29:28.141Z,2.92
2022-09-14T06:31:54.504Z,2.94
2022-09-14T06:34:20.872Z,3.31
2022-09-14T06:36:47.231Z,3.18
2022-09-14T06:39:13.653Z,2.94
2022-09-14T06:41:40.026Z,3.37
2022-09-14T06:44:06.388Z,3.10
2022-09-14T06:46:32.771Z,2.80
2022-09-14T06:48:59.130Z,2.81
2022-09-14T06:51:25.499Z,3.09
2022-09-14T06:53:51.891Z,3.20
2022-09-14T06:56:18.241Z,3.48
2022-09-14T06:58:44.596Z,3.76
2022-09-14T07:01:10.939Z,4.15
2022-09-14T07:03:37.313Z,3.69
2022-09-14T07:06:03.668Z,3.85
2022-09-14T07:08:30.032Z,3.92
2022-09-14T07:10:56.499Z,3.89
2022-09-14T07:13:22.868Z,4.20
2022-09-14T07:15:49.265Z,3.90
2022-09-14T07:18:15.624Z,3.29
2022-09-14T07:20:42.003Z,3.56
2022-09-14T07:23:08.377Z,3.56
2022-09-14T07:25:34.790Z,3.53
2022-09-14T07:28:01.156Z,3.47
2022-09-14T07:30:27.551Z,3.56
2022-09-14T07:32:53.979Z,3.63
2022-09-14T07:35:20.390Z,3.37
2022-09-14T07:37:46.799Z,3.39
2022-09-14T07:40:13.219Z,3.55
2022-09-14T07:42:39.635Z,3.57
2022-09-14T07:45:06.015Z,3.40
2022-09-14T07:47:32.383Z,3.86
2022-09-14T07:49:58.737Z,4.00
2022-09-14T07:52:25.126Z,4.11
2022-09-14T07:54:51.473Z,4.29
2022-09-14T07:57:17.828Z,3.95
2022-09-14T07:59:44.238Z,3.35
2022-09-14T08:02:10.670Z,3.75
2022-09-14T08:04:37.095Z,3.30
2022-09-14T08:07:03.498Z,3.39
2022-09-14T08:09:29.927Z,3.34
2022-09-14T08:11:56.289Z,3.28
2022-09-14T08:14:22.652Z,3.01
2022-09-14T08:16:49.096Z,2.88
2022-09-14T08:19:15.572Z,2.75
2022-09-14T08:21:46.509Z,2.81
2022-09-14T08:24:13.797Z,2.58
2022-09-14T08:26:40.217Z,2.57
2022-09-14T08:29:06.584Z,2.81
2022-09-14T08:31:33.025Z,2.88
2022-09-14T08:33:59.403Z,2.81
2022-09-14T08:36:25.751Z,2.73
2022-09-14T08:38:52.124Z,2.88
2022-09-14T08:41:18.490Z,3.00
2022-09-14T08:43:44.849Z,2.86
2022-09-14T08:46:11.303Z,2.81
2022-09-14T08:48:37.696Z,2.94
2022-09-14T08:51:04.084Z,3.08
2022-09-14T08:53:30.436Z,2.95
2022-09-14T08:55:56.789Z,3.22
2022-09-14T08:58:23.153Z,3.02
2022-09-14T09:00:49.548Z,3.90
2022-09-14T09:03:15.944Z,5.44
2022-09-14T09:05:42.327Z,5.21
2022-09-14T09:08:08.708Z,3.39
2022-09-14T09:10:35.068Z,4.00
2022-09-14T09:13:01.432Z,3.51
2022-09-14T09:15:27.786Z,3.29
2022-09-14T09:17:54.158Z,3.44
2022-09-14T09:20:20.546Z,3.34
2022-09-14T09:22:46.928Z,3.37
2022-09-14T09:25:13.286Z,3.51
2022-09-14T09:27:39.666Z,3.37
2022-09-14T09:30:06.037Z,3.57
2022-09-14T09:32:32.430Z,3.56
2022-09-14T09:34:58.784Z,3.36
2022-09-14T09:37:25.151Z,3.49
2022-09-14T09:39:51.547Z,3.53
2022-09-14T09:42:17.961Z,3.53
2022-09-14T09:44:44.396Z,3.22
2022-09-14T09:47:10.744Z,3.80
2022-09-14T09:49:37.108Z,3.51
2022-09-14T09:52:03.456Z,3.21
2022-09-14T09:54:29.822Z,3.21
2022-09-14T09:56:56.181Z,3.28
2022-09-14T09:59:22.551Z,3.19
2022-09-14T10:01:49.023Z,3.06
2022-09-14T10:04:15.527Z,3.00
2022-09-14T10:06:41.896Z,3.01
2022-09-14T10:09:08.393Z,3.06
2022-09-14T10:11:34.758Z,3.24
2022-09-14T10:14:01.152Z,2.37
2022-09-14T10:16:27.535Z,2.80
2022-09-14T10:18:54.224Z,2.72
2022-09-14T10:21:20.710Z,2.98
2022-09-14T10:23:47.062Z,2.95
2022-09-14T10:26:13.451Z,3.11
2022-09-14T10:28:39.863Z,2.99
2022-09-14T10:31:06.364Z,3.03
2022-09-14T10:33:32.741Z,3.00
2022-09-14T10:35:59.095Z,2.92
2022-09-14T10:38:25.471Z,2.99
2022-09-14T10:40:52.283Z,2.88
2022-09-14T10:43:18.699Z,3.16
2022-09-14T10:45:45.119Z,2.84
2022-09-14T10:48:11.490Z,3.19
2022-09-14T10:50:38.103Z,3.23
2022-09-14T10:53:04.491Z,3.17
2022-09-14T10:55:31.094Z,3.01
2022-09-14T10:57:57.506Z,2.78
2022-09-14T11:00:23.994Z,2.83
2022-09-14T11:02:50.496Z,2.97
2022-09-14T11:05:16.918Z,2.94
2022-09-14T11:07:43.291Z,3.00
2022-09-14T11:10:09.640Z,3.12
2022-09-14T11:12:36.043Z,2.84
2022-09-14T11:15:02.417Z,3.09
2022-09-14T11:17:28.798Z,3.26
2022-09-14T11:19:55.180Z,3.13
2022-09-14T11:22:22.698Z,2.73
2022-09-14T11:24:49.086Z,2.95
2022-09-14T11:27:15.457Z,2.93
2022-09-14T11:29:42.915Z,3.07
2022-09-14T11:32:22.882Z,2.99
2022-09-14T11:34:50.455Z,2.71
2022-09-14T11:37:16.873Z,3.14
2022-09-14T11:39:43.250Z,2.97
2022-09-14T11:42:09.674Z,2.69
2022-09-14T11:44:36.041Z,2.74
2022-09-14T11:47:02.409Z,2.87
2022-09-14T11:49:28.771Z,2.77
2022-09-14T11:51:55.134Z,2.69
2022-09-14T11:54:21.567Z,2.59
2022-09-14T11:56:47.941Z,2.61
2022-09-14T11:59:14.296Z,3.06
2022-09-14T12:01:40.654Z,2.70
2022-09-14T12:04:07.236Z,2.39
2022-09-14T12:06:33.686Z,2.30
2022-09-14T12:09:00.047Z,2.64
2022-09-14T12:11:26.463Z,3.58
2022-09-14T12:13:52.886Z,2.68
2022-09-14T12:16:19.275Z,2.60
2022-09-14T12:18:45.680Z,2.74
2022-09-14T12:21:12.041Z,2.64
2022-09-14T12:23:38.442Z,2.92
2022-09-14T12:26:04.790Z,2.71
2022-09-14T12:28:31.230Z,2.76
2022-09-14T12:30:57.696Z,2.58
2022-09-14T12:33:24.101Z,2.76
2022-09-14T12:35:50.473Z,2.77
2022-09-14T12:38:16.879Z,2.81
2022-09-14T12:40:43.332Z,2.53
2022-09-14T12:43:09.692Z,2.65
2022-09-14T12:45:36.069Z,4.79
2022-09-14T12:48:02.456Z,2.49
2022-09-14T12:50:28.908Z,2.70
2022-09-14T12:52:55.280Z,2.60
2022-09-14T12:55:21.709Z,2.93
2022-09-14T12:57:48.086Z,2.72
2022-09-14T13:00:14.450Z,2.65
2022-09-14T13:02:40.873Z,2.60
2022-09-14T13:05:07.385Z,2.50
2022-09-14T13:07:33.739Z,2.79
2022-09-14T13:10:00.256Z,2.59
2022-09-14T13:12:26.641Z,2.67
2022-09-14T13:14:53.006Z,2.50
2022-09-14T13:17:19.466Z,2.70
2022-09-14T13:19:45.895Z,2.66
2022-09-14T13:22:12.264Z,2.61
2022-09-14T13:24:38.649Z,2.63
2022-09-14T13:27:04.991Z,2.71
2022-09-14T13:29:31.457Z,2.95
2022-09-14T13:32:03.045Z,2.84
2022-09-14T13:34:30.213Z,2.80
2022-09-14T13:36:56.606Z,2.67
2022-09-14T13:39:22.968Z,2.58
2022-09-14T13:41:49.354Z,2.50
2022-09-14T13:44:15.735Z,2.59
2022-09-14T13:46:42.174Z,2.66
2022-09-14T13:49:08.666Z,2.90
2022-09-14T13:51:35.046Z,2.61
2022-09-14T13:54:01.413Z,2.48
2022-09-14T13:56:27.765Z,2.57
2022-09-14T13:58:54.133Z,2.49
2022-09-14T14:01:20.571Z,2.44
2022-09-14T14:03:46.965Z,2.67
2022-09-14T14:06:13.384Z,2.91
2022-09-14T14:08:39.749Z,2.44
2022-09-14T14:11:06.095Z,2.65
2022-09-14T14:13:32.460Z,2.54
2022-09-14T14:15:58.847Z,2.83
2022-09-14T14:18:25.237Z,2.84
2022-09-14T14:20:51.621Z,2.48
2022-09-14T14:23:17.967Z,2.46
2022-09-14T14:25:46.189Z,2.51
2022-09-14T14:28:12.835Z,2.78
2022-09-14T14:30:39.210Z,2.61
2022-09-14T14:33:05.586Z,2.55
2022-09-14T14:36:56.275Z,2.71
2022-09-14T14:39:22.669Z,2.57
2022-09-14T14:41:49.064Z,2.50
2022-09-14T14:44:15.493Z,2.58
2022-09-14T14:46:41.852Z,2.69
2022-09-14T14:49:08.317Z,2.76
2022-09-14T14:51:34.780Z,2.66
2022-09-14T14:54:01.130Z,2.63
2022-09-14T14:56:27.511Z,2.73
2022-09-14T14:58:53.884Z,2.57
2022-09-14T15:01:20.363Z,2.74
2022-09-14T15:03:46.914Z,2.47
2022-09-14T15:06:13.350Z,2.83
2022-09-14T15:08:39.737Z,2.67
2022-09-14T15:11:06.149Z,2.89
2022-09-14T15:13:32.528Z,2.82
2022-09-14T15:15:58.915Z,2.74
2022-09-14T15:18:25.300Z,2.79
2022-09-14T15:20:51.650Z,2.88
2022-09-14T15:23:18.016Z,2.64
2022-09-14T15:25:44.427Z,3.00
2022-09-14T15:28:10.786Z,2.85
2022-09-14T15:30:37.140Z,2.78
2022-09-14T15:33:03.511Z,2.78
2022-09-14T15:35:29.862Z,3.07
2022-09-14T15:37:56.291Z,2.96
2022-09-14T15:40:22.692Z,2.88
2022-09-14T15:42:49.086Z,2.95
2022-09-14T15:45:15.518Z,2.88
2022-09-14T15:47:41.925Z,2.77
2022-09-14T15:50:08.316Z,2.90
2022-09-14T15:52:34.682Z,2.63
2022-09-14T15:55:01.128Z,3.06
2022-09-14T15:57:27.502Z,2.94
2022-09-14T15:59:53.932Z,3.17
2022-09-14T16:02:20.463Z,2.90
2022-09-14T16:04:46.868Z,2.85
2022-09-14T16:07:13.432Z,2.82
2022-09-14T16:09:39.815Z,2.77
2022-09-14T16:12:06.161Z,2.88
2022-09-14T16:14:32.518Z,2.72
2022-09-14T16:17:02.051Z,2.79
2022-09-14T16:19:28.408Z,2.75
2022-09-14T16:21:54.796Z,2.88
2022-09-14T16:24:21.171Z,2.68
2022-09-14T16:26:47.524Z,2.74
2022-09-14T16:29:13.880Z,2.89
2022-09-14T16:31:40.322Z,2.82
2022-09-14T16:34:06.722Z,3.17
2022-09-14T16:36:33.132Z,2.85
2022-09-14T16:39:00.397Z,3.03
2022-09-14T16:41:26.789Z,3.88
2022-09-14T16:43:53.135Z,3.14
2022-09-14T16:46:19.527Z,2.87
2022-09-14T16:48:45.922Z,2.79
2022-09-14T16:51:12.267Z,2.91
2022-09-14T16:53:38.629Z,2.83
2022-09-14T16:56:05.004Z,3.12
2022-09-14T16:58:31.372Z,3.46
2022-09-14T17:00:57.755Z,3.09
2022-09-14T17:03:25.888Z,3.05
2022-09-14T17:05:55.002Z,3.03
2022-09-14T17:08:21.354Z,3.12
2022-09-14T17:10:47.720Z,2.98
2022-09-14T17:13:14.062Z,3.24
2022-09-14T17:15:40.436Z,3.19
2022-09-14T17:18:06.799Z,3.14
2022-09-14T17:20:33.165Z,2.93
2022-09-14T17:22:59.544Z,3.09
2022-09-14T17:25:25.902Z,3.02
2022-09-14T17:27:52.290Z,3.13
2022-09-14T17:30:18.653Z,3.21
2022-09-14T17:32:45.004Z,3.34
2022-09-14T17:35:11.379Z,3.13
2022-09-14T17:37:37.745Z,3.15
2022-09-14T17:40:04.122Z,3.09
2022-09-14T17:42:30.545Z,3.21
2022-09-14T17:44:57.010Z,3.06
2022-09-14T17:47:23.370Z,3.25
2022-09-14T17:49:49.714Z,3.18
2022-09-14T17:52:16.074Z,3.00
2022-09-14T17:54:42.521Z,3.31
2022-09-14T17:57:08.878Z,3.22
2022-09-14T17:59:35.305Z,3.22
2022-09-14T18:02:01.674Z,3.22
2022-09-14T18:04:28.023Z,3.28
2022-09-14T18:06:54.367Z,3.18
2022-09-14T18:09:20.743Z,3.42
2022-09-14T18:11:47.099Z,3.07
2022-09-14T18:14:13.459Z,2.68
2022-09-14T18:16:39.890Z,2.75
2022-09-14T18:19:06.316Z,2.48
2022-09-14T18:21:32.707Z,2.53
2022-09-14T18:23:59.064Z,2.20
2022-09-14T18:26:25.441Z,2.24
2022-09-14T18:28:51.879Z,1.57
2022-09-14T18:31:18.352Z,1.80
2022-09-14T18:33:44.722Z,1.52
2022-09-14T18:36:11.080Z,1.47
2022-09-14T18:38:37.428Z,1.52
2022-09-14T18:41:03.781Z,1.46
2022-09-14T18:43:30.131Z,1.73
2022-09-14T18:45:56.467Z,1.44
2022-09-14T18:48:22.864Z,1.39
2022-09-14T18:50:49.204Z,1.47
2022-09-14T18:53:15.556Z,1.77
2022-09-14T18:55:41.920Z,1.43
2022-09-14T18:58:08.295Z,1.63
2022-09-14T19:00:34.694Z,1.37
2022-09-14T19:03:01.102Z,1.49
2022-09-14T19:05:27.471Z,1.09
2022-09-14T19:07:53.865Z,1.24
2022-09-14T19:10:20.257Z,1.35
2022-09-14T19:12:46.624Z,1.44
2022-09-14T19:15:12.977Z,1.39
2022-09-14T19:17:39.317Z,1.36
2022-09-14T19:20:05.688Z,1.22
2022-09-14T19:22:32.058Z,1.26
2022-09-14T19:24:58.412Z,1.79
2022-09-14T19:27:24.889Z,1.32
2022-09-14T19:29:51.231Z,1.19
2022-09-14T19:32:17.617Z,1.51
2022-09-14T19:34:43.971Z,1.03
2022-09-14T19:37:10.338Z,1.04
2022-09-14T19:39:36.679Z,1.16
2022-09-14T19:42:03.042Z,0.99
2022-09-14T19:44:29.396Z,1.05
2022-09-14T19:46:55.731Z,1.23
2022-09-14T19:49:22.157Z,1.27
2022-09-14T19:51:48.567Z,1.36
2022-09-14T19:54:14.935Z,1.61
2022-09-14T19:56:41.273Z,1.74
2022-09-14T19:59:07.638Z,1.96
2022-09-14T20:01:34.221Z,2.00
2022-09-14T20:04:00.678Z,1.81
2022-09-14T20:06:27.065Z,1.93
2022-09-14T20:08:53.419Z,3.99
2022-09-14T20:11:20.207Z,5.01
2022-09-14T20:13:46.703Z,2.52
2022-09-14T20:16:13.130Z,1.95
2022-09-14T20:18:39.598Z,1.83
2022-09-14T20:21:05.967Z,1.73
2022-09-14T20:23:32.322Z,1.65
2022-09-14T20:25:58.744Z,1.81
2022-09-14T20:28:25.149Z,1.96
2022-09-14T20:30:51.569Z,2.18
2022-09-14T20:33:18.082Z,2.00
2022-09-14T20:35:44.437Z,1.98
2022-09-14T20:38:10.815Z,2.45
2022-09-14T20:40:37.259Z,2.22
2022-09-14T20:43:03.660Z,2.25
2022-09-14T20:45:30.057Z,2.10
2022-09-14T20:47:56.431Z,1.77
2022-09-14T20:50:22.782Z,1.74
2022-09-14T20:52:49.135Z,1.71
2022-09-14T20:55:15.488Z,1.52
2022-09-14T20:57:41.855Z,1.79
2022-09-14T21:00:08.197Z,5.03
2022-09-14T21:02:34.581Z,1.40
2022-09-14T21:05:00.976Z,1.61
2022-09-14T21:07:27.339Z,2.02
2022-09-14T21:09:53.683Z,1.41
2022-09-14T21:12:20.031Z,1.52
2022-09-14T21:14:46.396Z,1.93
2022-09-14T21:17:12.755Z,2.56
2022-09-14T21:19:39.148Z,1.47
2022-09-14T21:22:05.506Z,1.48
2022-09-14T21:24:31.880Z,1.28
2022-09-14T21:26:58.259Z,1.36
2022-09-14T21:29:24.704Z,1.46
2022-09-14T21:31:51.125Z,1.38
2022-09-14T21:34:17.489Z,1.27
2022-09-14T21:36:43.860Z,1.15
2022-09-14T21:39:10.200Z,1.07
2022-09-14T21:41:36.603Z,0.96
2022-09-14T21:44:03.001Z,1.29
2022-09-14T21:46:29.429Z,1.09
2022-09-14T21:48:55.883Z,1.11
2022-09-14T21:51:22.258Z,1.03
2022-09-14T21:53:48.670Z,1.24
2022-09-14T21:56:15.022Z,1.15
2022-09-14T21:58:41.436Z,1.03
2022-09-14T22:01:07.982Z,1.11
2022-09-14T22:03:37.468Z,1.31
2022-09-14T22:06:03.828Z,1.11
2022-09-14T22:08:30.995Z,1.30
2022-09-14T22:10:57.385Z,1.17
2022-09-14T22:13:23.747Z,1.35
2022-09-14T22:15:50.182Z,1.39
2022-09-14T22:18:16.591Z,1.33
2022-09-14T22:20:42.982Z,1.33
2022-09-14T22:23:09.329Z,1.41
2022-09-14T22:25:35.692Z,1.24
2022-09-14T22:28:02.107Z,1.15
2022-09-14T22:30:28.532Z,1.23
2022-09-14T22:32:54.951Z,1.30
2022-09-14T22:35:21.295Z,1.37
2022-09-14T22:37:47.718Z,1.32
2022-09-14T22:40:14.185Z,1.56
2022-09-14T22:42:40.604Z,1.60
2022-09-14T22:45:06.968Z,1.49
2022-09-14T22:47:33.437Z,1.50
2022-09-14T22:49:59.773Z,1.43
2022-09-14T22:52:26.133Z,1.47
2022-09-14T22:54:52.471Z,1.37
2022-09-14T22:57:18.828Z,1.49
2022-09-14T22:59:45.180Z,1.27
2022-09-14T23:02:11.604Z,1.32
2022-09-14T23:04:38.011Z,1.25
2022-09-14T23:07:04.351Z,1.24
2022-09-14T23:09:30.694Z,1.23
2022-09-14T23:11:57.043Z,1.36
2022-09-14T23:14:23.399Z,1.39
2022-09-14T23:16:49.926Z,1.40
2022-09-14T23:19:16.292Z,1.31
2022-09-14T23:21:42.641Z,1.13
2022-09-14T23:24:08.995Z,1.30
2022-09-14T23:26:35.356Z,1.34
2022-09-14T23:29:01.715Z,1.26
2022-09-14T23:31:28.210Z,1.19
2022-09-14T23:33:54.638Z,1.21
2022-09-14T23:36:21.018Z,1.22
2022-09-14T23:38:47.405Z,1.14
2022-09-14T23:41:13.758Z,1.11
2022-09-14T23:43:40.309Z,1.14
2022-09-14T23:46:06.808Z,1.02
2022-09-14T23:48:33.225Z,1.40
2022-09-14T23:50:59.618Z,1.12
2022-09-14T23:53:25.964Z,0.98
2022-09-14T23:55:52.311Z,1.02
2022-09-14T23:58:18.662Z,0.96
